sensor_id;sensor_type;location;lat;lon;timestamp;P1;durP1;ratioP1;P2;durP2;ratioP2
43803;SDS011;29430;52.924;-2.388;2024-03-06T00:03:57;14.88;;;7.10;;
43803;SDS011;29430;52.924;-2.388;2024-03-06T00:08:49;15.70;;;6.68;;
43803;SDS011;29430;52.924;-2.388;2024-03-06T00:13:40;14.05;;;6.28;;
43803;SDS011;29430;52.924;-2.388;2024-03-06T00:18:33;14.52;;;7.47;;
43803;SDS011;29430;52.924;-2.388;2024-03-06T00:23:24;13.75;;;6.80;;
43803;SDS011;29430;52.924;-2.388;2024-03-06T00:28:16;10.82;;;6.03;;
43803;SDS011;29430;52.924;-2.388;2024-03-06T00:33:08;13.07;;;5.90;;
43803;SDS011;29430;52.924;-2.388;2024-03-06T00:37:59;12.93;;;6.13;;
43803;SDS011;29430;52.924;-2.388;2024-03-06T00:42:54;13.57;;;5.15;;
43803;SDS011;29430;52.924;-2.388;2024-03-06T00:47:46;9.85;;;4.10;;
43803;SDS011;29430;52.924;-2.388;2024-03-06T00:52:38;10.88;;;6.00;;
43803;SDS011;29430;52.924;-2.388;2024-03-06T00:57:29;11.23;;;5.43;;
43803;SDS011;29430;52.924;-2.388;2024-03-06T01:02:21;12.63;;;5.28;;
43803;SDS011;29430;52.924;-2.388;2024-03-06T01:07:14;10.52;;;4.40;;
43803;SDS011;29430;52.924;-2.388;2024-03-06T01:12:08;9.18;;;5.53;;
43803;SDS011;29430;52.924;-2.388;2024-03-06T01:17:00;12.02;;;6.20;;
43803;SDS011;29430;52.924;-2.388;2024-03-06T01:21:51;14.30;;;6.80;;
43803;SDS011;29430;52.924;-2.388;2024-03-06T01:26:43;11.50;;;5.35;;
43803;SDS011;29430;52.924;-2.388;2024-03-06T01:31:35;15.38;;;7.95;;
43803;SDS011;29430;52.924;-2.388;2024-03-06T01:36:26;21.38;;;9.52;;
43803;SDS011;29430;52.924;-2.388;2024-03-06T01:41:18;17.35;;;8.15;;
43803;SDS011;29430;52.924;-2.388;2024-03-06T01:46:10;16.67;;;8.00;;
43803;SDS011;29430;52.924;-2.388;2024-03-06T01:51:02;14.40;;;8.15;;
43803;SDS011;29430;52.924;-2.388;2024-03-06T01:55:56;15.43;;;8.48;;
43803;SDS011;29430;52.924;-2.388;2024-03-06T02:00:49;13.15;;;7.47;;
43803;SDS011;29430;52.924;-2.388;2024-03-06T02:05:41;14.38;;;8.25;;
43803;SDS011;29430;52.924;-2.388;2024-03-06T02:10:34;14.60;;;9.45;;
43803;SDS011;29430;52.924;-2.388;2024-03-06T02:15:26;13.45;;;7.85;;
43803;SDS011;29430;52.924;-2.388;2024-03-06T02:20:20;18.88;;;9.80;;
43803;SDS011;29430;52.924;-2.388;2024-03-06T02:25:14;14.98;;;9.18;;
43803;SDS011;29430;52.924;-2.388;2024-03-06T02:30:07;15.93;;;9.80;;
43803;SDS011;29430;52.924;-2.388;2024-03-06T02:35:00;16.92;;;9.38;;
43803;SDS011;29430;52.924;-2.388;2024-03-06T02:39:53;13.35;;;8.95;;
43803;SDS011;29430;52.924;-2.388;2024-03-06T02:44:45;19.77;;;10.00;;
43803;SDS011;29430;52.924;-2.388;2024-03-06T02:49:37;16.00;;;9.57;;
43803;SDS011;29430;52.924;-2.388;2024-03-06T02:54:28;13.55;;;8.63;;
43803;SDS011;29430;52.924;-2.388;2024-03-06T02:59:20;18.83;;;10.55;;
43803;SDS011;29430;52.924;-2.388;2024-03-06T03:04:12;24.80;;;14.27;;
43803;SDS011;29430;52.924;-2.388;2024-03-06T03:09:04;20.77;;;12.98;;
43803;SDS011;29430;52.924;-2.388;2024-03-06T03:13:56;20.58;;;11.88;;
43803;SDS011;29430;52.924;-2.388;2024-03-06T03:18:48;20.90;;;11.60;;
43803;SDS011;29430;52.924;-2.388;2024-03-06T03:23:40;19.02;;;11.00;;
43803;SDS011;29430;52.924;-2.388;2024-03-06T03:28:32;23.77;;;13.95;;
43803;SDS011;29430;52.924;-2.388;2024-03-06T03:33:24;20.08;;;12.35;;
43803;SDS011;29430;52.924;-2.388;2024-03-06T03:38:15;21.88;;;12.65;;
43803;SDS011;29430;52.924;-2.388;2024-03-06T03:43:08;19.85;;;11.68;;
43803;SDS011;29430;52.924;-2.388;2024-03-06T03:48:00;23.23;;;12.98;;
43803;SDS011;29430;52.924;-2.388;2024-03-06T03:52:54;22.88;;;13.50;;
43803;SDS011;29430;52.924;-2.388;2024-03-06T03:57:45;23.55;;;15.40;;
43803;SDS011;29430;52.924;-2.388;2024-03-06T04:02:37;23.70;;;15.52;;
43803;SDS011;29430;52.924;-2.388;2024-03-06T04:07:29;24.52;;;14.02;;
43803;SDS011;29430;52.924;-2.388;2024-03-06T04:12:21;29.40;;;17.35;;
43803;SDS011;29430;52.924;-2.388;2024-03-06T04:17:13;25.58;;;16.17;;
43803;SDS011;29430;52.924;-2.388;2024-03-06T04:22:04;26.70;;;15.23;;
43803;SDS011;29430;52.924;-2.388;2024-03-06T04:26:56;32.85;;;16.33;;
43803;SDS011;29430;52.924;-2.388;2024-03-06T04:31:48;33.63;;;14.30;;
43803;SDS011;29430;52.924;-2.388;2024-03-06T04:36:40;26.85;;;14.45;;
43803;SDS011;29430;52.924;-2.388;2024-03-06T04:41:31;24.27;;;14.80;;
43803;SDS011;29430;52.924;-2.388;2024-03-06T04:46:23;24.77;;;14.13;;
43803;SDS011;29430;52.924;-2.388;2024-03-06T04:51:15;25.38;;;13.93;;
43803;SDS011;29430;52.924;-2.388;2024-03-06T04:56:06;27.92;;;15.38;;
43803;SDS011;29430;52.924;-2.388;2024-03-06T05:00:58;28.77;;;16.38;;
43803;SDS011;29430;52.924;-2.388;2024-03-06T05:05:50;28.92;;;16.67;;
43803;SDS011;29430;52.924;-2.388;2024-03-06T05:11:00;31.85;;;16.77;;
43803;SDS011;29430;52.924;-2.388;2024-03-06T05:16:10;26.25;;;14.80;;
43803;SDS011;29430;52.924;-2.388;2024-03-06T05:21:19;24.52;;;14.73;;
43803;SDS011;29430;52.924;-2.388;2024-03-06T05:26:31;32.55;;;16.58;;
43803;SDS011;29430;52.924;-2.388;2024-03-06T05:31:40;56.13;;;16.52;;
43803;SDS011;29430;52.924;-2.388;2024-03-06T05:36:50;100.15;;;15.80;;
43803;SDS011;29430;52.924;-2.388;2024-03-06T05:41:59;117.50;;;18.02;;
43803;SDS011;29430;52.924;-2.388;2024-03-06T05:47:12;40.25;;;14.93;;
43803;SDS011;29430;52.924;-2.388;2024-03-06T05:52:21;49.10;;;16.02;;
43803;SDS011;29430;52.924;-2.388;2024-03-06T05:57:30;42.30;;;13.02;;
43803;SDS011;29430;52.924;-2.388;2024-03-06T06:02:39;58.25;;;11.52;;
43803;SDS011;29430;52.924;-2.388;2024-03-06T06:07:31;39.28;;;13.13;;
43803;SDS011;29430;52.924;-2.388;2024-03-06T06:12:23;84.53;;;15.15;;
43803;SDS011;29430;52.924;-2.388;2024-03-06T06:17:14;24.83;;;11.75;;
43803;SDS011;29430;52.924;-2.388;2024-03-06T06:22:07;34.35;;;12.15;;
43803;SDS011;29430;52.924;-2.388;2024-03-06T06:26:58;30.52;;;12.18;;
43803;SDS011;29430;52.924;-2.388;2024-03-06T06:31:50;38.47;;;12.27;;
43803;SDS011;29430;52.924;-2.388;2024-03-06T06:36:45;33.03;;;11.80;;
43803;SDS011;29430;52.924;-2.388;2024-03-06T06:41:37;53.03;;;11.60;;
43803;SDS011;29430;52.924;-2.388;2024-03-06T06:46:29;18.52;;;10.05;;
43803;SDS011;29430;52.924;-2.388;2024-03-06T06:51:21;27.90;;;13.05;;
43803;SDS011;29430;52.924;-2.388;2024-03-06T06:56:14;26.55;;;13.32;;
43803;SDS011;29430;52.924;-2.388;2024-03-06T07:01:06;28.17;;;13.68;;
43803;SDS011;29430;52.924;-2.388;2024-03-06T07:05:57;30.70;;;10.48;;
43803;SDS011;29430;52.924;-2.388;2024-03-06T07:10:50;37.20;;;10.35;;
43803;SDS011;29430;52.924;-2.388;2024-03-06T07:15:42;30.10;;;10.18;;
43803;SDS011;29430;52.924;-2.388;2024-03-06T07:20:34;32.15;;;11.70;;
43803;SDS011;29430;52.924;-2.388;2024-03-06T07:25:26;42.60;;;11.80;;
43803;SDS011;29430;52.924;-2.388;2024-03-06T07:30:17;25.27;;;10.02;;
43803;SDS011;29430;52.924;-2.388;2024-03-06T07:35:09;20.83;;;9.23;;
43803;SDS011;29430;52.924;-2.388;2024-03-06T07:40:01;35.15;;;11.45;;
43803;SDS011;29430;52.924;-2.388;2024-03-06T07:44:54;51.50;;;11.15;;
43803;SDS011;29430;52.924;-2.388;2024-03-06T07:49:46;34.05;;;10.63;;
43803;SDS011;29430;52.924;-2.388;2024-03-06T07:54:38;39.75;;;9.88;;
43803;SDS011;29430;52.924;-2.388;2024-03-06T07:59:31;48.20;;;8.52;;
43803;SDS011;29430;52.924;-2.388;2024-03-06T08:04:23;20.90;;;7.80;;
43803;SDS011;29430;52.924;-2.388;2024-03-06T08:09:16;33.35;;;9.50;;
43803;SDS011;29430;52.924;-2.388;2024-03-06T08:14:08;23.95;;;9.32;;
43803;SDS011;29430;52.924;-2.388;2024-03-06T08:19:00;27.52;;;9.18;;
43803;SDS011;29430;52.924;-2.388;2024-03-06T08:23:51;57.80;;;9.13;;
43803;SDS011;29430;52.924;-2.388;2024-03-06T08:28:43;31.27;;;7.82;;
43803;SDS011;29430;52.924;-2.388;2024-03-06T08:33:35;39.97;;;7.70;;
43803;SDS011;29430;52.924;-2.388;2024-03-06T08:38:27;13.27;;;6.40;;
43803;SDS011;29430;52.924;-2.388;2024-03-06T08:43:18;34.13;;;9.13;;
43803;SDS011;29430;52.924;-2.388;2024-03-06T08:48:11;45.33;;;12.43;;
43803;SDS011;29430;52.924;-2.388;2024-03-06T08:53:03;31.23;;;9.30;;
43803;SDS011;29430;52.924;-2.388;2024-03-06T08:57:55;26.33;;;11.43;;
43803;SDS011;29430;52.924;-2.388;2024-03-06T09:02:46;33.08;;;12.50;;
43803;SDS011;29430;52.924;-2.388;2024-03-06T09:07:39;36.47;;;14.05;;
43803;SDS011;29430;52.924;-2.388;2024-03-06T09:12:34;31.35;;;14.00;;
43803;SDS011;29430;52.924;-2.388;2024-03-06T09:17:26;22.95;;;12.13;;
43803;SDS011;29430;52.924;-2.388;2024-03-06T09:22:18;28.48;;;14.25;;
43803;SDS011;29430;52.924;-2.388;2024-03-06T09:27:09;35.47;;;16.38;;
43803;SDS011;29430;52.924;-2.388;2024-03-06T09:32:01;39.17;;;18.10;;
43803;SDS011;29430;52.924;-2.388;2024-03-06T09:36:53;30.63;;;17.40;;
43803;SDS011;29430;52.924;-2.388;2024-03-06T09:41:45;29.40;;;16.33;;
43803;SDS011;29430;52.924;-2.388;2024-03-06T09:46:37;35.67;;;18.77;;
43803;SDS011;29430;52.924;-2.388;2024-03-06T09:51:30;29.65;;;17.77;;
43803;SDS011;29430;52.924;-2.388;2024-03-06T09:56:23;29.92;;;17.52;;
43803;SDS011;29430;52.924;-2.388;2024-03-06T10:01:14;36.00;;;20.55;;
43803;SDS011;29430;52.924;-2.388;2024-03-06T10:06:08;33.70;;;19.98;;
43803;SDS011;29430;52.924;-2.388;2024-03-06T10:11:03;38.13;;;20.60;;
43803;SDS011;29430;52.924;-2.388;2024-03-06T10:15:56;35.03;;;21.17;;
43803;SDS011;29430;52.924;-2.388;2024-03-06T10:20:49;38.42;;;22.17;;
43803;SDS011;29430;52.924;-2.388;2024-03-06T10:25:42;34.45;;;22.42;;
43803;SDS011;29430;52.924;-2.388;2024-03-06T10:30:35;36.72;;;22.75;;
43803;SDS011;29430;52.924;-2.388;2024-03-06T10:35:29;39.85;;;23.85;;
43803;SDS011;29430;52.924;-2.388;2024-03-06T10:40:20;42.20;;;23.83;;
43803;SDS011;29430;52.924;-2.388;2024-03-06T10:45:14;42.60;;;22.10;;
43803;SDS011;29430;52.924;-2.388;2024-03-06T10:50:09;38.42;;;24.10;;
43803;SDS011;29430;52.924;-2.388;2024-03-06T10:55:04;43.03;;;24.20;;
43803;SDS011;29430;52.924;-2.388;2024-03-06T10:59:58;42.22;;;24.42;;
43803;SDS011;29430;52.924;-2.388;2024-03-06T11:04:55;39.10;;;24.08;;
43803;SDS011;29430;52.924;-2.388;2024-03-06T11:09:47;41.55;;;24.02;;
43803;SDS011;29430;52.924;-2.388;2024-03-06T11:14:40;46.60;;;26.58;;
43803;SDS011;29430;52.924;-2.388;2024-03-06T11:19:32;43.42;;;25.77;;
43803;SDS011;29430;52.924;-2.388;2024-03-06T11:24:44;42.42;;;26.23;;
43803;SDS011;29430;52.924;-2.388;2024-03-06T11:34:55;50.35;;;28.30;;
43803;SDS011;29430;52.924;-2.388;2024-03-06T11:39:47;45.55;;;27.90;;
43803;SDS011;29430;52.924;-2.388;2024-03-06T11:44:51;44.47;;;28.33;;
43803;SDS011;29430;52.924;-2.388;2024-03-06T11:49:48;44.35;;;27.38;;
43803;SDS011;29430;52.924;-2.388;2024-03-06T11:54:41;39.90;;;24.77;;
43803;SDS011;29430;52.924;-2.388;2024-03-06T11:59:33;40.53;;;24.40;;
43803;SDS011;29430;52.924;-2.388;2024-03-06T12:04:27;40.08;;;24.17;;
43803;SDS011;29430;52.924;-2.388;2024-03-06T12:09:19;40.45;;;22.95;;
43803;SDS011;29430;52.924;-2.388;2024-03-06T12:14:17;40.45;;;22.23;;
43803;SDS011;29430;52.924;-2.388;2024-03-06T12:19:10;40.15;;;22.83;;
43803;SDS011;29430;52.924;-2.388;2024-03-06T12:24:05;33.47;;;20.42;;
43803;SDS011;29430;52.924;-2.388;2024-03-06T12:29:07;41.40;;;23.15;;
43803;SDS011;29430;52.924;-2.388;2024-03-06T12:34:01;37.40;;;22.13;;
43803;SDS011;29430;52.924;-2.388;2024-03-06T12:38:57;37.33;;;21.95;;
43803;SDS011;29430;52.924;-2.388;2024-03-06T12:43:51;39.15;;;21.80;;
43803;SDS011;29430;52.924;-2.388;2024-03-06T12:48:42;34.92;;;19.50;;
43803;SDS011;29430;52.924;-2.388;2024-03-06T12:53:34;30.98;;;17.92;;
43803;SDS011;29430;52.924;-2.388;2024-03-06T12:58:27;33.58;;;19.67;;
43803;SDS011;29430;52.924;-2.388;2024-03-06T13:03:18;35.15;;;20.08;;
43803;SDS011;29430;52.924;-2.388;2024-03-06T13:08:10;28.55;;;16.10;;
43803;SDS011;29430;52.924;-2.388;2024-03-06T13:13:05;32.38;;;17.48;;
43803;SDS011;29430;52.924;-2.388;2024-03-06T13:17:58;39.03;;;21.27;;
43803;SDS011;29430;52.924;-2.388;2024-03-06T13:22:49;38.40;;;22.20;;
43803;SDS011;29430;52.924;-2.388;2024-03-06T13:27:41;45.95;;;23.10;;
43803;SDS011;29430;52.924;-2.388;2024-03-06T13:32:33;39.30;;;19.98;;
43803;SDS011;29430;52.924;-2.388;2024-03-06T13:37:25;33.88;;;18.17;;
43803;SDS011;29430;52.924;-2.388;2024-03-06T13:42:16;41.13;;;18.15;;
43803;SDS011;29430;52.924;-2.388;2024-03-06T13:47:14;32.00;;;15.57;;
43803;SDS011;29430;52.924;-2.388;2024-03-06T13:52:10;31.85;;;16.20;;
43803;SDS011;29430;52.924;-2.388;2024-03-06T13:57:02;27.23;;;14.70;;
43803;SDS011;29430;52.924;-2.388;2024-03-06T14:01:54;28.42;;;15.25;;
43803;SDS011;29430;52.924;-2.388;2024-03-06T14:06:46;26.60;;;15.27;;
43803;SDS011;29430;52.924;-2.388;2024-03-06T14:11:37;27.15;;;15.13;;
43803;SDS011;29430;52.924;-2.388;2024-03-06T14:16:29;33.60;;;16.27;;
43803;SDS011;29430;52.924;-2.388;2024-03-06T14:21:22;32.83;;;15.48;;
43803;SDS011;29430;52.924;-2.388;2024-03-06T14:26:14;30.70;;;14.15;;
43803;SDS011;29430;52.924;-2.388;2024-03-06T14:31:06;29.50;;;14.57;;
43803;SDS011;29430;52.924;-2.388;2024-03-06T14:35:59;26.95;;;14.43;;
43803;SDS011;29430;52.924;-2.388;2024-03-06T14:40:51;30.55;;;15.00;;
43803;SDS011;29430;52.924;-2.388;2024-03-06T14:45:45;31.15;;;14.60;;
43803;SDS011;29430;52.924;-2.388;2024-03-06T14:50:36;34.20;;;14.85;;
43803;SDS011;29430;52.924;-2.388;2024-03-06T14:55:28;25.67;;;13.25;;
43803;SDS011;29430;52.924;-2.388;2024-03-06T15:00:20;25.00;;;13.07;;
43803;SDS011;29430;52.924;-2.388;2024-03-06T15:05:12;26.38;;;14.43;;
43803;SDS011;29430;52.924;-2.388;2024-03-06T15:10:05;25.13;;;12.30;;
43803;SDS011;29430;52.924;-2.388;2024-03-06T15:14:57;29.90;;;12.18;;
43803;SDS011;29430;52.924;-2.388;2024-03-06T15:19:49;21.90;;;11.95;;
43803;SDS011;29430;52.924;-2.388;2024-03-06T15:24:41;24.77;;;12.40;;
43803;SDS011;29430;52.924;-2.388;2024-03-06T15:29:35;21.58;;;11.70;;
43803;SDS011;29430;52.924;-2.388;2024-03-06T15:34:27;23.38;;;11.68;;
43803;SDS011;29430;52.924;-2.388;2024-03-06T15:39:19;21.27;;;11.95;;
43803;SDS011;29430;52.924;-2.388;2024-03-06T15:44:12;24.67;;;13.05;;
43803;SDS011;29430;52.924;-2.388;2024-03-06T15:49:18;26.95;;;14.27;;
43803;SDS011;29430;52.924;-2.388;2024-03-06T15:54:12;24.40;;;12.73;;
43803;SDS011;29430;52.924;-2.388;2024-03-06T15:59:03;27.02;;;13.20;;
43803;SDS011;29430;52.924;-2.388;2024-03-06T16:03:55;24.00;;;13.57;;
43803;SDS011;29430;52.924;-2.388;2024-03-06T16:08:47;29.67;;;15.05;;
43803;SDS011;29430;52.924;-2.388;2024-03-06T16:13:39;26.55;;;14.82;;
43803;SDS011;29430;52.924;-2.388;2024-03-06T16:18:30;27.90;;;13.93;;
43803;SDS011;29430;52.924;-2.388;2024-03-06T16:23:22;25.77;;;12.82;;
43803;SDS011;29430;52.924;-2.388;2024-03-06T16:28:14;29.95;;;15.30;;
43803;SDS011;29430;52.924;-2.388;2024-03-06T16:33:07;33.08;;;16.70;;
43803;SDS011;29430;52.924;-2.388;2024-03-06T16:37:58;39.30;;;21.67;;
43803;SDS011;29430;52.924;-2.388;2024-03-06T16:42:50;28.77;;;15.05;;
43803;SDS011;29430;52.924;-2.388;2024-03-06T16:47:42;26.60;;;14.10;;
43803;SDS011;29430;52.924;-2.388;2024-03-06T16:52:33;29.48;;;14.82;;
43803;SDS011;29430;52.924;-2.388;2024-03-06T16:57:25;23.92;;;13.20;;
43803;SDS011;29430;52.924;-2.388;2024-03-06T17:02:17;27.90;;;14.48;;
43803;SDS011;29430;52.924;-2.388;2024-03-06T17:07:08;23.55;;;12.88;;
43803;SDS011;29430;52.924;-2.388;2024-03-06T17:12:06;21.38;;;11.73;;
43803;SDS011;29430;52.924;-2.388;2024-03-06T17:16:59;27.23;;;14.18;;
43803;SDS011;29430;52.924;-2.388;2024-03-06T17:21:52;26.77;;;14.15;;
43803;SDS011;29430;52.924;-2.388;2024-03-06T17:26:43;31.48;;;14.82;;
43803;SDS011;29430;52.924;-2.388;2024-03-06T17:31:36;33.00;;;17.83;;
43803;SDS011;29430;52.924;-2.388;2024-03-06T17:36:28;22.45;;;12.18;;
43803;SDS011;29430;52.924;-2.388;2024-03-06T17:41:23;29.90;;;14.82;;
43803;SDS011;29430;52.924;-2.388;2024-03-06T17:46:15;27.25;;;13.88;;
43803;SDS011;29430;52.924;-2.388;2024-03-06T17:51:07;28.42;;;15.85;;
43803;SDS011;29430;52.924;-2.388;2024-03-06T17:55:59;27.90;;;14.95;;
43803;SDS011;29430;52.924;-2.388;2024-03-06T18:00:51;25.15;;;12.23;;
43803;SDS011;29430;52.924;-2.388;2024-03-06T18:05:42;26.42;;;13.82;;
43803;SDS011;29430;52.924;-2.388;2024-03-06T18:10:34;26.73;;;14.73;;
43803;SDS011;29430;52.924;-2.388;2024-03-06T18:15:26;24.15;;;14.30;;
43803;SDS011;29430;52.924;-2.388;2024-03-06T18:20:18;25.75;;;14.93;;
43803;SDS011;29430;52.924;-2.388;2024-03-06T18:25:09;29.60;;;15.32;;
43803;SDS011;29430;52.924;-2.388;2024-03-06T18:30:01;25.95;;;13.10;;
43803;SDS011;29430;52.924;-2.388;2024-03-06T18:34:54;24.58;;;12.98;;
43803;SDS011;29430;52.924;-2.388;2024-03-06T18:39:49;24.75;;;12.82;;
43803;SDS011;29430;52.924;-2.388;2024-03-06T18:44:41;25.58;;;13.80;;
43803;SDS011;29430;52.924;-2.388;2024-03-06T18:49:33;29.83;;;14.93;;
43803;SDS011;29430;52.924;-2.388;2024-03-06T18:54:25;24.80;;;13.98;;
43803;SDS011;29430;52.924;-2.388;2024-03-06T18:59:17;30.20;;;14.98;;
43803;SDS011;29430;52.924;-2.388;2024-03-06T19:04:09;28.35;;;15.02;;
43803;SDS011;29430;52.924;-2.388;2024-03-06T19:09:01;30.02;;;15.25;;
43803;SDS011;29430;52.924;-2.388;2024-03-06T19:13:56;37.65;;;17.90;;
43803;SDS011;29430;52.924;-2.388;2024-03-06T19:18:48;42.30;;;18.83;;
43803;SDS011;29430;52.924;-2.388;2024-03-06T19:23:40;34.90;;;17.30;;
43803;SDS011;29430;52.924;-2.388;2024-03-06T19:28:31;33.22;;;17.50;;
43803;SDS011;29430;52.924;-2.388;2024-03-06T19:33:23;38.13;;;18.67;;
43803;SDS011;29430;52.924;-2.388;2024-03-06T19:38:15;33.50;;;16.85;;
43803;SDS011;29430;52.924;-2.388;2024-03-06T19:43:09;35.80;;;16.48;;
43803;SDS011;29430;52.924;-2.388;2024-03-06T19:48:03;32.67;;;16.08;;
43803;SDS011;29430;52.924;-2.388;2024-03-06T19:52:55;33.65;;;16.10;;
43803;SDS011;29430;52.924;-2.388;2024-03-06T19:57:47;31.15;;;16.33;;
43803;SDS011;29430;52.924;-2.388;2024-03-06T20:02:40;32.40;;;15.45;;
43803;SDS011;29430;52.924;-2.388;2024-03-06T20:07:32;33.97;;;16.35;;
43803;SDS011;29430;52.924;-2.388;2024-03-06T20:12:24;35.55;;;17.42;;
43803;SDS011;29430;52.924;-2.388;2024-03-06T20:17:16;34.47;;;16.92;;
43803;SDS011;29430;52.924;-2.388;2024-03-06T20:22:08;36.00;;;17.52;;
43803;SDS011;29430;52.924;-2.388;2024-03-06T20:26:59;34.55;;;16.75;;
43803;SDS011;29430;52.924;-2.388;2024-03-06T20:31:54;35.03;;;18.85;;
43803;SDS011;29430;52.924;-2.388;2024-03-06T20:36:46;33.08;;;17.10;;
43803;SDS011;29430;52.924;-2.388;2024-03-06T20:41:38;39.33;;;19.00;;
43803;SDS011;29430;52.924;-2.388;2024-03-06T20:46:31;43.40;;;19.80;;
43803;SDS011;29430;52.924;-2.388;2024-03-06T20:51:23;38.60;;;18.48;;
43803;SDS011;29430;52.924;-2.388;2024-03-06T20:56:14;38.60;;;18.98;;
43803;SDS011;29430;52.924;-2.388;2024-03-06T21:01:06;36.80;;;18.13;;
43803;SDS011;29430;52.924;-2.388;2024-03-06T21:05:59;41.97;;;19.20;;
43803;SDS011;29430;52.924;-2.388;2024-03-06T21:10:51;43.25;;;20.25;;
43803;SDS011;29430;52.924;-2.388;2024-03-06T21:15:42;40.60;;;20.75;;
43803;SDS011;29430;52.924;-2.388;2024-03-06T21:20:34;37.28;;;19.00;;
43803;SDS011;29430;52.924;-2.388;2024-03-06T21:25:26;39.72;;;19.88;;
43803;SDS011;29430;52.924;-2.388;2024-03-06T21:30:18;39.03;;;20.15;;
43803;SDS011;29430;52.924;-2.388;2024-03-06T21:35:09;36.45;;;17.95;;
43803;SDS011;29430;52.924;-2.388;2024-03-06T21:40:02;40.15;;;20.90;;
43803;SDS011;29430;52.924;-2.388;2024-03-06T21:44:59;31.17;;;17.20;;
43803;SDS011;29430;52.924;-2.388;2024-03-06T21:49:51;37.30;;;18.27;;
43803;SDS011;29430;52.924;-2.388;2024-03-06T21:54:43;36.08;;;18.13;;
43803;SDS011;29430;52.924;-2.388;2024-03-06T21:59:35;39.28;;;19.13;;
43803;SDS011;29430;52.924;-2.388;2024-03-06T22:04:26;37.28;;;20.00;;
43803;SDS011;29430;52.924;-2.388;2024-03-06T22:09:18;36.22;;;19.92;;
43803;SDS011;29430;52.924;-2.388;2024-03-06T22:14:10;35.70;;;18.77;;
43803;SDS011;29430;52.924;-2.388;2024-03-06T22:19:03;38.83;;;19.70;;
43803;SDS011;29430;52.924;-2.388;2024-03-06T22:23:55;40.92;;;20.75;;
43803;SDS011;29430;52.924;-2.388;2024-03-06T22:28:48;38.45;;;20.15;;
43803;SDS011;29430;52.924;-2.388;2024-03-06T22:33:40;40.80;;;20.30;;
43803;SDS011;29430;52.924;-2.388;2024-03-06T22:38:33;34.60;;;18.90;;
43803;SDS011;29430;52.924;-2.388;2024-03-06T22:43:24;40.47;;;20.80;;
43803;SDS011;29430;52.924;-2.388;2024-03-06T22:48:16;39.97;;;20.33;;
43803;SDS011;29430;52.924;-2.388;2024-03-06T22:53:08;41.17;;;20.60;;
43803;SDS011;29430;52.924;-2.388;2024-03-06T22:57:59;42.70;;;21.88;;
43803;SDS011;29430;52.924;-2.388;2024-03-06T23:02:52;37.67;;;20.33;;
43803;SDS011;29430;52.924;-2.388;2024-03-06T23:07:43;37.58;;;19.98;;
43803;SDS011;29430;52.924;-2.388;2024-03-06T23:12:35;38.05;;;21.33;;
43803;SDS011;29430;52.924;-2.388;2024-03-06T23:17:27;45.92;;;21.02;;
43803;SDS011;29430;52.924;-2.388;2024-03-06T23:22:19;39.97;;;20.33;;
43803;SDS011;29430;52.924;-2.388;2024-03-06T23:27:11;41.38;;;22.40;;
43803;SDS011;29430;52.924;-2.388;2024-03-06T23:32:02;38.35;;;19.40;;
43803;SDS011;29430;52.924;-2.388;2024-03-06T23:36:54;38.58;;;20.30;;
43803;SDS011;29430;52.924;-2.388;2024-03-06T23:41:46;39.55;;;20.83;;
43803;SDS011;29430;52.924;-2.388;2024-03-06T23:46:38;41.72;;;20.50;;
43803;SDS011;29430;52.924;-2.388;2024-03-06T23:51:29;39.53;;;21.02;;
43803;SDS011;29430;52.924;-2.388;2024-03-06T23:56:21;40.17;;;20.33;;
